sensor_id;sensor_type;location;lat;lon;timestamp;temperature;humidity
7030;DHT22;3556;53.500;10.176;2023-03-11T00:00:14;0.50;99.90
7030;DHT22;3556;53.500;10.176;2023-03-11T00:02:42;0.50;99.90
7030;DHT22;3556;53.500;10.176;2023-03-11T00:05:15;0.50;99.90
7030;DHT22;3556;53.500;10.176;2023-03-11T00:07:41;0.50;99.90
7030;DHT22;3556;53.500;10.176;2023-03-11T00:10:09;0.40;99.90
7030;DHT22;3556;53.500;10.176;2023-03-11T00:12:38;0.40;99.90
7030;DHT22;3556;53.500;10.176;2023-03-11T00:15:03;0.40;99.90
7030;DHT22;3556;53.500;10.176;2023-03-11T00:17:29;0.40;99.90
7030;DHT22;3556;53.500;10.176;2023-03-11T00:19:55;0.40;99.90
7030;DHT22;3556;53.500;10.176;2023-03-11T00:22:21;0.40;99.90
7030;DHT22;3556;53.500;10.176;2023-03-11T00:24:46;0.40;99.90
7030;DHT22;3556;53.500;10.176;2023-03-11T00:27:12;0.40;99.90
7030;DHT22;3556;53.500;10.176;2023-03-11T00:29:38;0.40;99.90
7030;DHT22;3556;53.500;10.176;2023-03-11T00:32:04;0.40;99.90
7030;DHT22;3556;53.500;10.176;2023-03-11T00:34:29;0.40;99.90
7030;DHT22;3556;53.500;10.176;2023-03-11T00:36:55;0.40;99.90
7030;DHT22;3556;53.500;10.176;2023-03-11T00:39:20;0.40;99.90
7030;DHT22;3556;53.500;10.176;2023-03-11T00:41:47;0.40;99.90
7030;DHT22;3556;53.500;10.176;2023-03-11T00:44:13;0.40;99.90
7030;DHT22;3556;53.500;10.176;2023-03-11T00:46:38;0.40;99.90
7030;DHT22;3556;53.500;10.176;2023-03-11T00:49:04;0.40;99.90
7030;DHT22;3556;53.500;10.176;2023-03-11T00:51:30;0.40;99.90
7030;DHT22;3556;53.500;10.176;2023-03-11T00:53:55;0.50;99.90
7030;DHT22;3556;53.500;10.176;2023-03-11T00:56:21;0.40;99.90
7030;DHT22;3556;53.500;10.176;2023-03-11T00:58:46;0.40;99.90
7030;DHT22;3556;53.500;10.176;2023-03-11T01:01:17;0.40;99.90
7030;DHT22;3556;53.500;10.176;2023-03-11T01:03:43;0.40;99.90
7030;DHT22;3556;53.500;10.176;2023-03-11T01:06:09;0.40;99.90
7030;DHT22;3556;53.500;10.176;2023-03-11T01:08:35;0.40;99.90
7030;DHT22;3556;53.500;10.176;2023-03-11T01:11:01;0.40;99.90
7030;DHT22;3556;53.500;10.176;2023-03-11T01:13:28;0.40;99.90
7030;DHT22;3556;53.500;10.176;2023-03-11T01:15:54;0.40;99.90
7030;DHT22;3556;53.500;10.176;2023-03-11T01:18:20;0.40;99.90
7030;DHT22;3556;53.500;10.176;2023-03-11T01:20:47;0.40;99.90
7030;DHT22;3556;53.500;10.176;2023-03-11T01:23:13;0.50;99.90
7030;DHT22;3556;53.500;10.176;2023-03-11T01:25:40;0.50;99.90
7030;DHT22;3556;53.500;10.176;2023-03-11T01:28:06;0.50;99.90
7030;DHT22;3556;53.500;10.176;2023-03-11T01:30:34;0.40;99.90
7030;DHT22;3556;53.500;10.176;2023-03-11T01:33:01;0.50;99.90
7030;DHT22;3556;53.500;10.176;2023-03-11T01:35:29;0.40;99.90
7030;DHT22;3556;53.500;10.176;2023-03-11T01:37:55;0.50;99.90
7030;DHT22;3556;53.500;10.176;2023-03-11T01:40:29;0.50;99.90
7030;DHT22;3556;53.500;10.176;2023-03-11T01:42:55;0.50;99.90
7030;DHT22;3556;53.500;10.176;2023-03-11T01:48:16;0.50;99.90
7030;DHT22;3556;53.500;10.176;2023-03-11T01:50:45;0.50;99.90
7030;DHT22;3556;53.500;10.176;2023-03-11T01:53:12;0.50;99.90
7030;DHT22;3556;53.500;10.176;2023-03-11T01:55:40;0.40;99.90
7030;DHT22;3556;53.500;10.176;2023-03-11T01:58:08;0.40;99.90
7030;DHT22;3556;53.500;10.176;2023-03-11T02:00:36;0.50;99.90
7030;DHT22;3556;53.500;10.176;2023-03-11T02:03:10;0.40;99.90
7030;DHT22;3556;53.500;10.176;2023-03-11T02:05:39;0.40;99.90
7030;DHT22;3556;53.500;10.176;2023-03-11T02:08:05;0.40;99.90
7030;DHT22;3556;53.500;10.176;2023-03-11T02:10:31;0.40;99.90
7030;DHT22;3556;53.500;10.176;2023-03-11T02:12:57;0.40;99.90
7030;DHT22;3556;53.500;10.176;2023-03-11T02:15:24;0.40;99.90
7030;DHT22;3556;53.500;10.176;2023-03-11T02:17:50;0.40;99.90
7030;DHT22;3556;53.500;10.176;2023-03-11T02:22:54;0.40;99.90
7030;DHT22;3556;53.500;10.176;2023-03-11T02:28:00;0.40;99.90
7030;DHT22;3556;53.500;10.176;2023-03-11T02:30:28;0.40;99.90
7030;DHT22;3556;53.500;10.176;2023-03-11T02:32:54;0.40;99.90
7030;DHT22;3556;53.500;10.176;2023-03-11T02:35:20;0.30;99.90
7030;DHT22;3556;53.500;10.176;2023-03-11T02:37:48;0.30;99.90
7030;DHT22;3556;53.500;10.176;2023-03-11T02:42:51;0.30;99.90
7030;DHT22;3556;53.500;10.176;2023-03-11T02:45:19;0.30;99.90
7030;DHT22;3556;53.500;10.176;2023-03-11T02:47:47;0.30;99.90
7030;DHT22;3556;53.500;10.176;2023-03-11T02:50:15;0.30;99.90
7030;DHT22;3556;53.500;10.176;2023-03-11T02:52:42;0.30;99.90
7030;DHT22;3556;53.500;10.176;2023-03-11T02:55:09;0.30;99.90
7030;DHT22;3556;53.500;10.176;2023-03-11T02:57:36;0.30;99.90
7030;DHT22;3556;53.500;10.176;2023-03-11T03:00:03;0.30;99.90
7030;DHT22;3556;53.500;10.176;2023-03-11T03:02:35;0.20;99.90
7030;DHT22;3556;53.500;10.176;2023-03-11T03:05:01;0.20;99.90
7030;DHT22;3556;53.500;10.176;2023-03-11T03:07:27;0.20;99.90
7030;DHT22;3556;53.500;10.176;2023-03-11T03:09:53;0.20;99.90
7030;DHT22;3556;53.500;10.176;2023-03-11T03:12:18;0.20;99.90
7030;DHT22;3556;53.500;10.176;2023-03-11T03:14:44;0.20;99.90
7030;DHT22;3556;53.500;10.176;2023-03-11T03:17:10;0.20;99.90
7030;DHT22;3556;53.500;10.176;2023-03-11T03:19:35;0.10;99.90
7030;DHT22;3556;53.500;10.176;2023-03-11T03:22:01;0.10;99.90
7030;DHT22;3556;53.500;10.176;2023-03-11T03:24:26;0.10;99.90
7030;DHT22;3556;53.500;10.176;2023-03-11T03:26:52;0.10;99.90
7030;DHT22;3556;53.500;10.176;2023-03-11T03:29:17;0.00;99.90
7030;DHT22;3556;53.500;10.176;2023-03-11T03:31:43;0.00;99.90
7030;DHT22;3556;53.500;10.176;2023-03-11T03:34:09;0.00;99.90
7030;DHT22;3556;53.500;10.176;2023-03-11T03:36:35;0.00;99.90
7030;DHT22;3556;53.500;10.176;2023-03-11T03:39:01;0.00;99.90
7030;DHT22;3556;53.500;10.176;2023-03-11T03:41:26;0.00;99.90
7030;DHT22;3556;53.500;10.176;2023-03-11T03:43:52;0.00;99.90
7030;DHT22;3556;53.500;10.176;2023-03-11T03:46:19;0.00;99.90
7030;DHT22;3556;53.500;10.176;2023-03-11T03:48:45;0.00;99.90
7030;DHT22;3556;53.500;10.176;2023-03-11T03:51:12;0.00;99.90
7030;DHT22;3556;53.500;10.176;2023-03-11T03:53:38;0.00;99.90
7030;DHT22;3556;53.500;10.176;2023-03-11T03:56:06;-0.10;99.90
7030;DHT22;3556;53.500;10.176;2023-03-11T03:58:32;-0.10;99.90
7030;DHT22;3556;53.500;10.176;2023-03-11T04:00:58;-0.10;99.90
7030;DHT22;3556;53.500;10.176;2023-03-11T04:03:25;-0.10;99.90
7030;DHT22;3556;53.500;10.176;2023-03-11T04:05:51;-0.10;99.90
7030;DHT22;3556;53.500;10.176;2023-03-11T04:08:17;-0.10;99.90
7030;DHT22;3556;53.500;10.176;2023-03-11T04:10:43;-0.10;99.90
7030;DHT22;3556;53.500;10.176;2023-03-11T04:13:09;-0.10;99.90
7030;DHT22;3556;53.500;10.176;2023-03-11T04:15:37;-0.10;99.90
7030;DHT22;3556;53.500;10.176;2023-03-11T04:18:04;-0.10;99.90
7030;DHT22;3556;53.500;10.176;2023-03-11T04:20:30;-0.10;99.90
7030;DHT22;3556;53.500;10.176;2023-03-11T04:22:56;-0.10;99.90
7030;DHT22;3556;53.500;10.176;2023-03-11T04:25:21;-0.10;99.90
7030;DHT22;3556;53.500;10.176;2023-03-11T04:27:47;-0.10;99.90
7030;DHT22;3556;53.500;10.176;2023-03-11T04:30:14;-0.10;99.90
7030;DHT22;3556;53.500;10.176;2023-03-11T04:32:40;-0.10;99.90
7030;DHT22;3556;53.500;10.176;2023-03-11T04:35:06;-0.10;99.90
7030;DHT22;3556;53.500;10.176;2023-03-11T04:37:32;-0.10;99.90
7030;DHT22;3556;53.500;10.176;2023-03-11T04:39:58;-0.10;99.90
7030;DHT22;3556;53.500;10.176;2023-03-11T04:42:23;-0.10;99.90
7030;DHT22;3556;53.500;10.176;2023-03-11T04:44:49;-0.10;99.90
7030;DHT22;3556;53.500;10.176;2023-03-11T04:47:15;-0.10;99.90
7030;DHT22;3556;53.500;10.176;2023-03-11T04:49:41;-0.10;99.90
7030;DHT22;3556;53.500;10.176;2023-03-11T04:52:06;-0.10;99.90
7030;DHT22;3556;53.500;10.176;2023-03-11T04:54:32;-0.20;99.90
7030;DHT22;3556;53.500;10.176;2023-03-11T04:56:57;-0.20;99.90
7030;DHT22;3556;53.500;10.176;2023-03-11T04:59:23;-0.30;99.90
7030;DHT22;3556;53.500;10.176;2023-03-11T05:01:48;-0.30;99.90
7030;DHT22;3556;53.500;10.176;2023-03-11T05:04:14;-0.30;99.90
7030;DHT22;3556;53.500;10.176;2023-03-11T05:06:40;-0.40;99.90
7030;DHT22;3556;53.500;10.176;2023-03-11T05:09:05;-0.40;99.90
7030;DHT22;3556;53.500;10.176;2023-03-11T05:11:31;-0.40;99.90
7030;DHT22;3556;53.500;10.176;2023-03-11T05:13:56;-0.50;99.90
7030;DHT22;3556;53.500;10.176;2023-03-11T05:16:22;-0.50;99.90
7030;DHT22;3556;53.500;10.176;2023-03-11T05:18:48;-0.60;99.90
7030;DHT22;3556;53.500;10.176;2023-03-11T05:21:13;-0.60;99.90
7030;DHT22;3556;53.500;10.176;2023-03-11T05:23:39;-0.60;99.90
7030;DHT22;3556;53.500;10.176;2023-03-11T05:26:05;-0.60;99.90
7030;DHT22;3556;53.500;10.176;2023-03-11T05:28:30;-0.70;99.90
7030;DHT22;3556;53.500;10.176;2023-03-11T05:30:56;-0.70;99.90
7030;DHT22;3556;53.500;10.176;2023-03-11T05:33:22;-0.80;99.90
7030;DHT22;3556;53.500;10.176;2023-03-11T05:35:47;-0.80;99.90
7030;DHT22;3556;53.500;10.176;2023-03-11T05:38:16;-0.80;99.90
7030;DHT22;3556;53.500;10.176;2023-03-11T05:40:41;-0.70;99.90
7030;DHT22;3556;53.500;10.176;2023-03-11T05:43:07;-0.80;99.90
7030;DHT22;3556;53.500;10.176;2023-03-11T05:45:32;-0.70;99.90
7030;DHT22;3556;53.500;10.176;2023-03-11T05:47:58;-0.70;99.90
7030;DHT22;3556;53.500;10.176;2023-03-11T05:50:24;-0.60;99.90
7030;DHT22;3556;53.500;10.176;2023-03-11T05:52:49;-0.60;99.90
7030;DHT22;3556;53.500;10.176;2023-03-11T05:55:15;-0.60;99.90
7030;DHT22;3556;53.500;10.176;2023-03-11T05:57:41;-0.60;99.90
7030;DHT22;3556;53.500;10.176;2023-03-11T06:00:08;-0.60;99.90
7030;DHT22;3556;53.500;10.176;2023-03-11T06:02:38;-0.60;99.90
7030;DHT22;3556;53.500;10.176;2023-03-11T06:05:05;-0.50;99.90
7030;DHT22;3556;53.500;10.176;2023-03-11T06:07:33;-0.50;99.90
7030;DHT22;3556;53.500;10.176;2023-03-11T06:10:00;-0.50;99.90
7030;DHT22;3556;53.500;10.176;2023-03-11T06:12:26;-0.60;99.90
7030;DHT22;3556;53.500;10.176;2023-03-11T06:14:52;-0.60;99.90
7030;DHT22;3556;53.500;10.176;2023-03-11T06:17:18;-0.60;99.90
7030;DHT22;3556;53.500;10.176;2023-03-11T06:19:44;-0.60;99.90
7030;DHT22;3556;53.500;10.176;2023-03-11T06:22:10;-0.70;99.90
7030;DHT22;3556;53.500;10.176;2023-03-11T06:24:35;-0.70;99.90
7030;DHT22;3556;53.500;10.176;2023-03-11T06:27:01;-0.70;99.90
7030;DHT22;3556;53.500;10.176;2023-03-11T06:29:27;-0.70;99.90
7030;DHT22;3556;53.500;10.176;2023-03-11T06:31:53;-0.70;99.90
7030;DHT22;3556;53.500;10.176;2023-03-11T06:34:19;-0.70;99.90
7030;DHT22;3556;53.500;10.176;2023-03-11T06:36:45;-0.70;99.90
7030;DHT22;3556;53.500;10.176;2023-03-11T06:39:14;-0.70;99.90
7030;DHT22;3556;53.500;10.176;2023-03-11T06:41:40;-0.70;99.90
7030;DHT22;3556;53.500;10.176;2023-03-11T06:44:07;-0.60;99.90
7030;DHT22;3556;53.500;10.176;2023-03-11T06:46:33;-0.60;99.90
7030;DHT22;3556;53.500;10.176;2023-03-11T06:48:58;-0.60;99.90
7030;DHT22;3556;53.500;10.176;2023-03-11T06:51:24;-0.60;99.90
7030;DHT22;3556;53.500;10.176;2023-03-11T06:53:52;-0.50;99.90
7030;DHT22;3556;53.500;10.176;2023-03-11T06:56:20;-0.50;99.90
7030;DHT22;3556;53.500;10.176;2023-03-11T06:58:46;-0.40;99.90
7030;DHT22;3556;53.500;10.176;2023-03-11T07:01:15;-0.40;99.90
7030;DHT22;3556;53.500;10.176;2023-03-11T07:03:41;-0.30;99.90
7030;DHT22;3556;53.500;10.176;2023-03-11T07:06:13;-0.20;99.90
7030;DHT22;3556;53.500;10.176;2023-03-11T07:08:39;-0.10;99.90
7030;DHT22;3556;53.500;10.176;2023-03-11T07:11:17;0.00;99.90
7030;DHT22;3556;53.500;10.176;2023-03-11T07:13:43;0.10;99.90
7030;DHT22;3556;53.500;10.176;2023-03-11T07:16:12;0.20;99.90
7030;DHT22;3556;53.500;10.176;2023-03-11T07:18:40;0.20;99.90
7030;DHT22;3556;53.500;10.176;2023-03-11T07:21:07;0.30;99.90
7030;DHT22;3556;53.500;10.176;2023-03-11T07:23:33;0.30;99.90
7030;DHT22;3556;53.500;10.176;2023-03-11T07:25:59;0.40;99.90
7030;DHT22;3556;53.500;10.176;2023-03-11T07:28:26;0.40;99.90
7030;DHT22;3556;53.500;10.176;2023-03-11T07:30:53;0.50;99.90
7030;DHT22;3556;53.500;10.176;2023-03-11T07:33:21;0.60;99.90
7030;DHT22;3556;53.500;10.176;2023-03-11T07:35:49;0.60;99.90
7030;DHT22;3556;53.500;10.176;2023-03-11T07:38:15;0.70;99.90
7030;DHT22;3556;53.500;10.176;2023-03-11T07:40:42;0.80;99.90
7030;DHT22;3556;53.500;10.176;2023-03-11T07:43:07;0.80;99.90
7030;DHT22;3556;53.500;10.176;2023-03-11T07:45:33;0.90;99.90
7030;DHT22;3556;53.500;10.176;2023-03-11T07:47:59;1.00;99.90
7030;DHT22;3556;53.500;10.176;2023-03-11T07:50:24;1.20;99.90
7030;DHT22;3556;53.500;10.176;2023-03-11T07:52:50;1.30;99.90
7030;DHT22;3556;53.500;10.176;2023-03-11T07:55:15;1.40;99.90
7030;DHT22;3556;53.500;10.176;2023-03-11T07:57:41;1.50;99.90
7030;DHT22;3556;53.500;10.176;2023-03-11T08:00:08;1.70;99.90
7030;DHT22;3556;53.500;10.176;2023-03-11T08:02:34;1.80;99.90
7030;DHT22;3556;53.500;10.176;2023-03-11T08:05:00;2.00;99.90
7030;DHT22;3556;53.500;10.176;2023-03-11T08:07:25;2.10;99.90
7030;DHT22;3556;53.500;10.176;2023-03-11T08:09:51;2.10;99.90
7030;DHT22;3556;53.500;10.176;2023-03-11T08:12:17;2.30;99.90
7030;DHT22;3556;53.500;10.176;2023-03-11T08:14:42;2.50;99.90
7030;DHT22;3556;53.500;10.176;2023-03-11T08:17:08;2.60;99.90
7030;DHT22;3556;53.500;10.176;2023-03-11T08:19:34;2.80;99.90
7030;DHT22;3556;53.500;10.176;2023-03-11T08:22:01;3.10;99.90
7030;DHT22;3556;53.500;10.176;2023-03-11T08:24:27;3.30;99.90
7030;DHT22;3556;53.500;10.176;2023-03-11T08:26:53;3.40;99.90
7030;DHT22;3556;53.500;10.176;2023-03-11T08:29:19;3.40;99.90
7030;DHT22;3556;53.500;10.176;2023-03-11T08:31:45;3.60;99.90
7030;DHT22;3556;53.500;10.176;2023-03-11T08:34:11;3.50;99.90
7030;DHT22;3556;53.500;10.176;2023-03-11T08:36:36;3.50;99.90
7030;DHT22;3556;53.500;10.176;2023-03-11T08:39:02;3.70;99.90
7030;DHT22;3556;53.500;10.176;2023-03-11T08:41:28;3.70;99.90
7030;DHT22;3556;53.500;10.176;2023-03-11T08:43:54;3.90;99.90
7030;DHT22;3556;53.500;10.176;2023-03-11T08:48:49;4.00;99.90
7030;DHT22;3556;53.500;10.176;2023-03-11T08:51:15;4.10;99.90
7030;DHT22;3556;53.500;10.176;2023-03-11T08:53:40;4.00;99.90
7030;DHT22;3556;53.500;10.176;2023-03-11T08:56:07;4.00;99.90
7030;DHT22;3556;53.500;10.176;2023-03-11T08:58:32;4.20;99.90
7030;DHT22;3556;53.500;10.176;2023-03-11T09:00:58;4.30;99.90
7030;DHT22;3556;53.500;10.176;2023-03-11T09:03:24;4.20;99.90
7030;DHT22;3556;53.500;10.176;2023-03-11T09:05:56;4.40;99.90
7030;DHT22;3556;53.500;10.176;2023-03-11T09:08:22;4.30;99.90
7030;DHT22;3556;53.500;10.176;2023-03-11T09:10:47;4.20;99.90
7030;DHT22;3556;53.500;10.176;2023-03-11T09:13:13;4.20;99.90
7030;DHT22;3556;53.500;10.176;2023-03-11T09:15:39;4.30;99.90
7030;DHT22;3556;53.500;10.176;2023-03-11T09:18:04;4.30;99.90
7030;DHT22;3556;53.500;10.176;2023-03-11T09:20:30;4.30;99.90
7030;DHT22;3556;53.500;10.176;2023-03-11T09:22:55;4.40;99.90
7030;DHT22;3556;53.500;10.176;2023-03-11T09:25:21;4.50;99.90
7030;DHT22;3556;53.500;10.176;2023-03-11T09:27:47;4.50;99.90
7030;DHT22;3556;53.500;10.176;2023-03-11T09:30:12;4.50;99.90
7030;DHT22;3556;53.500;10.176;2023-03-11T09:32:38;4.50;99.90
7030;DHT22;3556;53.500;10.176;2023-03-11T09:35:04;4.50;99.90
7030;DHT22;3556;53.500;10.176;2023-03-11T09:37:30;4.50;99.90
7030;DHT22;3556;53.500;10.176;2023-03-11T09:39:55;4.50;99.90
7030;DHT22;3556;53.500;10.176;2023-03-11T09:42:52;4.40;99.90
7030;DHT22;3556;53.500;10.176;2023-03-11T09:45:27;4.40;99.90
7030;DHT22;3556;53.500;10.176;2023-03-11T09:48:21;4.50;99.90
7030;DHT22;3556;53.500;10.176;2023-03-11T09:50:55;4.60;99.90
7030;DHT22;3556;53.500;10.176;2023-03-11T09:53:45;4.60;99.90
7030;DHT22;3556;53.500;10.176;2023-03-11T09:56:19;4.70;99.90
7030;DHT22;3556;53.500;10.176;2023-03-11T09:58:51;4.70;99.90
7030;DHT22;3556;53.500;10.176;2023-03-11T10:01:29;4.70;99.90
7030;DHT22;3556;53.500;10.176;2023-03-11T10:04:03;4.60;99.90
7030;DHT22;3556;53.500;10.176;2023-03-11T10:06:30;4.60;99.90
7030;DHT22;3556;53.500;10.176;2023-03-11T10:20:15;5.40;99.90
7030;DHT22;3556;53.500;10.176;2023-03-11T10:25:31;5.50;99.90
7030;DHT22;3556;53.500;10.176;2023-03-11T10:28:10;5.60;99.90
7030;DHT22;3556;53.500;10.176;2023-03-11T10:30:44;5.50;99.90
7030;DHT22;3556;53.500;10.176;2023-03-11T10:33:28;5.60;99.90
7030;DHT22;3556;53.500;10.176;2023-03-11T10:36:05;5.70;99.90
7030;DHT22;3556;53.500;10.176;2023-03-11T10:41:00;5.70;99.90
7030;DHT22;3556;53.500;10.176;2023-03-11T10:43:39;5.90;99.90
7030;DHT22;3556;53.500;10.176;2023-03-11T10:46:14;6.20;99.90
7030;DHT22;3556;53.500;10.176;2023-03-11T10:48:41;6.20;99.90
7030;DHT22;3556;53.500;10.176;2023-03-11T10:51:15;6.40;99.90
7030;DHT22;3556;53.500;10.176;2023-03-11T10:53:53;6.70;99.90
7030;DHT22;3556;53.500;10.176;2023-03-11T10:56:39;6.90;99.90
7030;DHT22;3556;53.500;10.176;2023-03-11T11:01:53;6.70;99.90
7030;DHT22;3556;53.500;10.176;2023-03-11T11:04:27;6.80;99.90
7030;DHT22;3556;53.500;10.176;2023-03-11T11:06:53;6.80;99.90
7030;DHT22;3556;53.500;10.176;2023-03-11T11:09:21;6.60;99.90
7030;DHT22;3556;53.500;10.176;2023-03-11T11:12:11;6.60;99.90
7030;DHT22;3556;53.500;10.176;2023-03-11T11:14:51;6.80;99.90
7030;DHT22;3556;53.500;10.176;2023-03-11T11:17:27;6.90;99.90
7030;DHT22;3556;53.500;10.176;2023-03-11T11:19:54;7.10;99.90
7030;DHT22;3556;53.500;10.176;2023-03-11T11:22:23;7.20;99.90
7030;DHT22;3556;53.500;10.176;2023-03-11T11:24:50;7.10;99.90
7030;DHT22;3556;53.500;10.176;2023-03-11T11:27:18;7.10;99.90
7030;DHT22;3556;53.500;10.176;2023-03-11T11:29:44;7.50;99.90
7030;DHT22;3556;53.500;10.176;2023-03-11T11:32:20;7.70;99.90
7030;DHT22;3556;53.500;10.176;2023-03-11T11:35:01;7.50;99.90
7030;DHT22;3556;53.500;10.176;2023-03-11T11:37:32;7.40;99.90
7030;DHT22;3556;53.500;10.176;2023-03-11T11:40:29;7.70;99.90
7030;DHT22;3556;53.500;10.176;2023-03-11T11:43:16;8.10;99.90
7030;DHT22;3556;53.500;10.176;2023-03-11T11:45:51;8.20;99.90
7030;DHT22;3556;53.500;10.176;2023-03-11T11:48:43;8.40;99.90
7030;DHT22;3556;53.500;10.176;2023-03-11T11:51:34;8.60;99.90
7030;DHT22;3556;53.500;10.176;2023-03-11T11:56:43;8.90;99.90
7030;DHT22;3556;53.500;10.176;2023-03-11T11:59:15;9.10;99.90
7030;DHT22;3556;53.500;10.176;2023-03-11T12:01:49;8.90;99.90
7030;DHT22;3556;53.500;10.176;2023-03-11T12:04:47;8.80;99.90
7030;DHT22;3556;53.500;10.176;2023-03-11T12:07:32;8.80;99.90
7030;DHT22;3556;53.500;10.176;2023-03-11T12:10:31;8.60;99.90
7030;DHT22;3556;53.500;10.176;2023-03-11T12:16:39;7.80;99.90
7030;DHT22;3556;53.500;10.176;2023-03-11T12:27:19;7.00;99.90
7030;DHT22;3556;53.500;10.176;2023-03-11T12:29:48;7.20;99.90
7030;DHT22;3556;53.500;10.176;2023-03-11T12:32:26;7.70;99.90
7030;DHT22;3556;53.500;10.176;2023-03-11T12:35:00;8.10;99.90
7030;DHT22;3556;53.500;10.176;2023-03-11T12:37:29;8.20;99.90
7030;DHT22;3556;53.500;10.176;2023-03-11T12:39:55;7.70;99.90
7030;DHT22;3556;53.500;10.176;2023-03-11T12:42:22;7.60;99.90
7030;DHT22;3556;53.500;10.176;2023-03-11T12:44:49;7.20;99.90
7030;DHT22;3556;53.500;10.176;2023-03-11T12:50:37;6.80;99.90
7030;DHT22;3556;53.500;10.176;2023-03-11T12:52:51;6.80;99.90
7030;DHT22;3556;53.500;10.176;2023-03-11T12:57:52;7.80;99.90
7030;DHT22;3556;53.500;10.176;2023-03-11T13:00:34;7.90;99.90
7030;DHT22;3556;53.500;10.176;2023-03-11T13:08:55;8.50;99.90
7030;DHT22;3556;53.500;10.176;2023-03-11T13:11:45;8.20;99.90
7030;DHT22;3556;53.500;10.176;2023-03-11T13:16:44;8.20;99.90
7030;DHT22;3556;53.500;10.176;2023-03-11T13:21:54;7.90;99.90
7030;DHT22;3556;53.500;10.176;2023-03-11T13:27:02;7.10;99.90
7030;DHT22;3556;53.500;10.176;2023-03-11T13:29:52;6.80;99.90
7030;DHT22;3556;53.500;10.176;2023-03-11T13:40:37;6.80;99.90
7030;DHT22;3556;53.500;10.176;2023-03-11T13:45:52;8.10;99.90
7030;DHT22;3556;53.500;10.176;2023-03-11T13:51:38;9.90;99.90
7030;DHT22;3556;53.500;10.176;2023-03-11T13:56:51;9.00;99.90
7030;DHT22;3556;53.500;10.176;2023-03-11T13:59:51;8.90;99.90
7030;DHT22;3556;53.500;10.176;2023-03-11T14:02:18;9.30;99.90
7030;DHT22;3556;53.500;10.176;2023-03-11T14:04:57;9.80;99.90
7030;DHT22;3556;53.500;10.176;2023-03-11T14:07:29;9.10;99.90
7030;DHT22;3556;53.500;10.176;2023-03-11T14:10:20;8.80;99.90
7030;DHT22;3556;53.500;10.176;2023-03-11T14:12:47;7.90;99.90
7030;DHT22;3556;53.500;10.176;2023-03-11T14:15:22;7.10;99.90
7030;DHT22;3556;53.500;10.176;2023-03-11T14:17:53;6.80;99.90
7030;DHT22;3556;53.500;10.176;2023-03-11T14:20:35;6.40;99.90
7030;DHT22;3556;53.500;10.176;2023-03-11T14:23:02;6.30;99.90
7030;DHT22;3556;53.500;10.176;2023-03-11T14:25:28;6.20;99.90
7030;DHT22;3556;53.500;10.176;2023-03-11T14:28:02;6.30;99.90
7030;DHT22;3556;53.500;10.176;2023-03-11T14:30:31;6.40;99.90
7030;DHT22;3556;53.500;10.176;2023-03-11T14:33:05;6.90;99.90
7030;DHT22;3556;53.500;10.176;2023-03-11T14:35:32;7.30;99.90
7030;DHT22;3556;53.500;10.176;2023-03-11T14:37:59;7.70;99.90
7030;DHT22;3556;53.500;10.176;2023-03-11T14:40:33;8.60;99.90
7030;DHT22;3556;53.500;10.176;2023-03-11T14:43:05;9.60;99.90
7030;DHT22;3556;53.500;10.176;2023-03-11T14:45:32;10.10;99.90
7030;DHT22;3556;53.500;10.176;2023-03-11T14:48:14;10.80;99.90
7030;DHT22;3556;53.500;10.176;2023-03-11T14:50:45;11.10;97.60
7030;DHT22;3556;53.500;10.176;2023-03-11T14:55:49;11.30;96.40
7030;DHT22;3556;53.500;10.176;2023-03-11T15:01:10;10.90;95.40
7030;DHT22;3556;53.500;10.176;2023-03-11T15:04:25;10.40;95.00
7030;DHT22;3556;53.500;10.176;2023-03-11T15:06:27;9.90;97.00
7030;DHT22;3556;53.500;10.176;2023-03-11T15:09:21;9.40;99.90
7030;DHT22;3556;53.500;10.176;2023-03-11T15:12:01;8.90;99.90
7030;DHT22;3556;53.500;10.176;2023-03-11T15:14:30;8.30;99.90
7030;DHT22;3556;53.500;10.176;2023-03-11T15:17:09;7.80;99.90
7030;DHT22;3556;53.500;10.176;2023-03-11T15:19:38;7.20;99.90
7030;DHT22;3556;53.500;10.176;2023-03-11T15:25:02;6.20;99.90
7030;DHT22;3556;53.500;10.176;2023-03-11T15:27:37;6.30;99.90
7030;DHT22;3556;53.500;10.176;2023-03-11T15:30:26;6.10;99.90
7030;DHT22;3556;53.500;10.176;2023-03-11T15:32:52;5.90;99.90
7030;DHT22;3556;53.500;10.176;2023-03-11T15:37:46;6.40;99.90
7030;DHT22;3556;53.500;10.176;2023-03-11T15:40:27;6.80;99.90
7030;DHT22;3556;53.500;10.176;2023-03-11T15:43:23;7.10;99.90
7030;DHT22;3556;53.500;10.176;2023-03-11T15:45:51;6.70;99.90
7030;DHT22;3556;53.500;10.176;2023-03-11T15:48:19;6.50;99.90
7030;DHT22;3556;53.500;10.176;2023-03-11T15:50:58;6.30;99.90
7030;DHT22;3556;53.500;10.176;2023-03-11T15:53:25;6.20;99.90
7030;DHT22;3556;53.500;10.176;2023-03-11T15:55:52;6.00;99.90
7030;DHT22;3556;53.500;10.176;2023-03-11T15:58:19;5.80;99.90
7030;DHT22;3556;53.500;10.176;2023-03-11T16:00:48;5.60;99.90
7030;DHT22;3556;53.500;10.176;2023-03-11T16:03:14;5.40;99.90
7030;DHT22;3556;53.500;10.176;2023-03-11T16:05:40;5.20;99.90
7030;DHT22;3556;53.500;10.176;2023-03-11T16:08:05;5.10;99.90
7030;DHT22;3556;53.500;10.176;2023-03-11T16:10:31;5.00;99.90
7030;DHT22;3556;53.500;10.176;2023-03-11T16:12:57;4.90;99.90
7030;DHT22;3556;53.500;10.176;2023-03-11T16:15:31;4.90;99.90
7030;DHT22;3556;53.500;10.176;2023-03-11T16:17:58;4.70;99.90
7030;DHT22;3556;53.500;10.176;2023-03-11T16:20:28;4.60;99.90
7030;DHT22;3556;53.500;10.176;2023-03-11T16:22:57;4.40;99.90
7030;DHT22;3556;53.500;10.176;2023-03-11T16:25:28;4.20;99.90
7030;DHT22;3556;53.500;10.176;2023-03-11T16:27:55;4.00;99.90
7030;DHT22;3556;53.500;10.176;2023-03-11T16:30:23;3.70;99.90
7030;DHT22;3556;53.500;10.176;2023-03-11T16:32:48;3.50;99.90
7030;DHT22;3556;53.500;10.176;2023-03-11T16:35:16;3.40;99.90
7030;DHT22;3556;53.500;10.176;2023-03-11T16:37:42;3.30;99.90
7030;DHT22;3556;53.500;10.176;2023-03-11T16:40:17;3.20;99.90
7030;DHT22;3556;53.500;10.176;2023-03-11T16:42:43;3.20;99.90
7030;DHT22;3556;53.500;10.176;2023-03-11T16:45:11;3.10;99.90
7030;DHT22;3556;53.500;10.176;2023-03-11T16:47:37;3.10;99.90
7030;DHT22;3556;53.500;10.176;2023-03-11T16:50:03;3.00;99.90
7030;DHT22;3556;53.500;10.176;2023-03-11T16:52:28;2.90;99.90
7030;DHT22;3556;53.500;10.176;2023-03-11T16:54:54;2.90;99.90
7030;DHT22;3556;53.500;10.176;2023-03-11T16:57:21;2.80;99.90
7030;DHT22;3556;53.500;10.176;2023-03-11T16:59:46;2.70;99.90
7030;DHT22;3556;53.500;10.176;2023-03-11T17:02:12;2.70;99.90
7030;DHT22;3556;53.500;10.176;2023-03-11T17:04:38;2.60;99.90
7030;DHT22;3556;53.500;10.176;2023-03-11T17:07:04;2.60;99.90
7030;DHT22;3556;53.500;10.176;2023-03-11T17:09:31;2.50;99.90
7030;DHT22;3556;53.500;10.176;2023-03-11T17:11:56;2.50;99.90
7030;DHT22;3556;53.500;10.176;2023-03-11T17:14:22;2.40;99.90
7030;DHT22;3556;53.500;10.176;2023-03-11T17:16:48;2.30;99.90
7030;DHT22;3556;53.500;10.176;2023-03-11T17:19:14;2.30;99.90
7030;DHT22;3556;53.500;10.176;2023-03-11T17:21:40;2.20;99.90
7030;DHT22;3556;53.500;10.176;2023-03-11T17:24:06;2.20;99.90
7030;DHT22;3556;53.500;10.176;2023-03-11T17:26:32;2.10;99.90
7030;DHT22;3556;53.500;10.176;2023-03-11T17:28:58;2.00;99.90
7030;DHT22;3556;53.500;10.176;2023-03-11T17:31:24;2.00;99.90
7030;DHT22;3556;53.500;10.176;2023-03-11T17:33:49;2.00;99.90
7030;DHT22;3556;53.500;10.176;2023-03-11T17:36:16;1.90;99.90
7030;DHT22;3556;53.500;10.176;2023-03-11T17:38:43;1.80;99.90
7030;DHT22;3556;53.500;10.176;2023-03-11T17:41:11;1.80;99.90